createdAt,value
2018-05-12T00:00:43.170Z,100407.77
2018-05-12T00:03:11.519Z,100411.59
2018-05-12T00:05:39.870Z,100408.03
2018-05-12T00:08:08.209Z,100405.73
2018-05-12T00:10:36.567Z,100403.60
2018-05-12T00:13:04.994Z,100395.72
2018-05-12T00:15:33.337Z,100397.53
2018-05-12T00:18:01.691Z,100401.72
2018-05-12T00:20:30.017Z,100399.89
2018-05-12T00:22:58.359Z,100403.81
2018-05-12T00:25:26.695Z,100397.91
2018-05-12T00:27:55.022Z,100402.02
2018-05-12T00:30:23.411Z,100397.34
2018-05-12T00:32:51.812Z,100397.02
2018-05-12T00:35:20.232Z,100394.76
2018-05-12T00:37:48.562Z,100398.39
2018-05-12T00:40:16.919Z,100392.62
2018-05-12T00:42:45.268Z,100387.70
2018-05-12T00:45:13.622Z,100390.91
2018-05-12T00:47:41.998Z,100388.49
2018-05-12T00:50:10.351Z,100386.32
2018-05-12T00:52:39.360Z,100384.27
2018-05-12T00:55:07.765Z,100382.80
2018-05-12T00:57:36.150Z,100378.55
2018-05-12T01:00:04.486Z,100381.45
2018-05-12T01:02:34.125Z,100375.79
2018-05-12T01:05:02.445Z,100379.31
2018-05-12T01:07:30.788Z,100373.01
2018-05-12T01:09:59.379Z,100376.84
2018-05-12T01:12:27.711Z,100375.77
2018-05-12T01:14:56.040Z,100378.49
2018-05-12T01:17:24.408Z,100379.48
2018-05-12T01:19:52.741Z,100378.38
2018-05-12T01:22:21.206Z,100376.70
2018-05-12T01:24:49.615Z,100381.47
2018-05-12T01:27:18.006Z,100379.73
2018-05-12T01:29:46.537Z,100385.41
2018-05-12T01:32:15.796Z,100383.30
2018-05-12T01:34:44.149Z,100381.41
2018-05-12T01:37:12.850Z,100377.29
2018-05-12T01:39:41.183Z,100376.92
2018-05-12T01:42:09.574Z,100375.88
2018-05-12T01:44:38.787Z,100372.52
2018-05-12T01:47:07.116Z,100369.16
2018-05-12T01:49:35.461Z,100362.75
2018-05-12T01:52:03.853Z,100361.16
2018-05-12T01:54:32.255Z,100360.17
2018-05-12T01:57:00.633Z,100364.12
2018-05-12T01:59:29.027Z,100357.64
2018-05-12T02:01:57.434Z,100358.89
2018-05-12T02:04:25.774Z,100358.80
2018-05-12T02:06:54.109Z,100362.10
2018-05-12T02:09:22.477Z,100361.61
2018-05-12T02:11:51.870Z,100364.98
2018-05-12T02:14:20.222Z,100363.94
2018-05-12T02:16:50.450Z,100364.98
2018-05-12T02:19:18.846Z,100358.98
2018-05-12T02:21:47.230Z,100359.23
2018-05-12T02:24:15.588Z,100362.84
2018-05-12T02:26:43.985Z,100359.88
2018-05-12T02:29:12.325Z,100354.70
2018-05-12T02:31:40.657Z,100361.24
2018-05-12T02:34:09.001Z,100357.27
2018-05-12T02:36:37.375Z,100362.45
2018-05-12T02:39:05.754Z,100359.98
2018-05-12T02:41:34.101Z,100357.49
2018-05-12T02:44:02.484Z,100358.95
2018-05-12T02:46:30.833Z,100357.68
2018-05-12T02:48:59.173Z,100356.88
2018-05-12T02:51:29.352Z,100360.78
2018-05-12T02:53:57.668Z,100357.54
2018-05-12T02:56:26.021Z,100357.27
2018-05-12T02:58:54.341Z,100357.74
2018-05-12T03:01:22.706Z,100357.30
2018-05-12T03:03:51.037Z,100356.52
2018-05-12T03:06:19.387Z,100358.53
2018-05-12T03:08:47.742Z,100354.79
2018-05-12T03:11:16.124Z,100357.74
2018-05-12T03:13:44.541Z,100348.61
2018-05-12T03:16:12.890Z,100349.52
2018-05-12T03:18:41.282Z,100348.25
2018-05-12T03:21:09.634Z,100354.55
2018-05-12T03:23:37.972Z,100352.22
2018-05-12T03:26:06.294Z,100352.69
2018-05-12T03:28:34.641Z,100355.89
2018-05-12T03:31:04.419Z,100356.30
2018-05-12T03:33:32.875Z,100355.55
2018-05-12T03:36:01.227Z,100351.55
2018-05-12T03:38:33.867Z,100352.84
2018-05-12T03:41:02.197Z,100352.17
2018-05-12T03:43:30.534Z,100356.61
2018-05-12T03:45:58.893Z,100351.54
2018-05-12T03:48:28.161Z,100359.61
2018-05-12T03:50:56.532Z,100353.32
2018-05-12T03:53:24.890Z,100351.45
2018-05-12T03:55:53.338Z,100355.97
2018-05-12T03:58:21.712Z,100346.19
2018-05-12T04:00:50.052Z,100351.41
2018-05-12T04:03:18.412Z,100349.63
2018-05-12T04:05:58.660Z,100349.19
2018-05-12T04:08:38.999Z,100349.88
2018-05-12T04:11:19.409Z,100349.46
2018-05-12T04:13:47.856Z,100352.16
2018-05-12T04:16:16.242Z,100349.06
2018-05-12T04:18:44.596Z,100356.04
2018-05-12T04:21:12.960Z,100351.67
2018-05-12T04:23:41.378Z,100351.30
2018-05-12T04:26:09.810Z,100352.28
2018-05-12T04:28:38.098Z,100350.20
2018-05-12T04:31:06.436Z,100350.58
2018-05-12T04:33:34.758Z,100352.13
2018-05-12T04:36:03.129Z,100358.31
2018-05-12T04:38:31.661Z,100358.38
2018-05-12T04:41:00.004Z,100362.16
2018-05-12T04:43:28.348Z,100365.95
2018-05-12T04:45:56.689Z,100363.59
2018-05-12T04:48:25.093Z,100356.08
2018-05-12T04:50:53.448Z,100360.70
2018-05-12T04:53:21.883Z,100357.92
2018-05-12T04:55:50.221Z,100358.16
2018-05-12T04:58:18.576Z,100360.47
2018-05-12T05:00:46.932Z,100352.59
2018-05-12T05:03:15.369Z,100348.71
2018-05-12T05:05:43.711Z,100352.37
2018-05-12T05:08:12.226Z,100350.05
2018-05-12T05:10:41.588Z,100352.30
2018-05-12T05:13:09.914Z,100350.22
2018-05-12T05:15:38.447Z,100349.02
2018-05-12T05:18:06.793Z,100342.96
2018-05-12T05:20:35.201Z,100343.48
2018-05-12T05:23:03.546Z,100344.30
2018-05-12T05:25:31.882Z,100347.12
2018-05-12T05:28:00.292Z,100343.99
2018-05-12T05:30:28.638Z,100342.73
2018-05-12T05:32:56.988Z,100338.55
2018-05-12T05:35:25.332Z,100336.03
2018-05-12T05:37:53.663Z,100340.52
2018-05-12T05:40:22.042Z,100336.42
2018-05-12T05:42:50.388Z,100336.14
2018-05-12T05:45:18.834Z,100336.33
2018-05-12T05:47:47.186Z,100338.04
2018-05-12T05:50:15.611Z,100331.23
2018-05-12T05:52:43.898Z,100327.38
2018-05-12T05:55:12.256Z,100323.66
2018-05-12T05:57:41.526Z,100324.77
2018-05-12T06:00:09.889Z,100323.84
2018-05-12T06:02:38.218Z,100322.63
2018-05-12T06:05:06.574Z,100325.73
2018-05-12T06:07:34.973Z,100326.69
2018-05-12T06:10:03.370Z,100333.28
2018-05-12T06:12:31.711Z,100328.69
2018-05-12T06:15:00.141Z,100331.27
2018-05-12T06:17:28.563Z,100335.03
2018-05-12T06:19:56.907Z,100336.48
2018-05-12T06:22:25.260Z,100328.48
2018-05-12T06:24:53.595Z,100330.73
2018-05-12T06:27:22.026Z,100327.38
2018-05-12T06:29:50.523Z,100334.30
2018-05-12T06:32:18.846Z,100330.83
2018-05-12T06:34:47.580Z,100334.61
2018-05-12T06:37:15.915Z,100334.61
2018-05-12T06:39:44.264Z,100334.14
2018-05-12T06:42:12.719Z,100331.18
2018-05-12T06:44:41.200Z,100335.28
2018-05-12T06:47:09.549Z,100334.48
2018-05-12T06:49:37.948Z,100330.07
2018-05-12T06:52:06.299Z,100331.43
2018-05-12T06:54:34.681Z,100327.06
2018-05-12T06:57:03.032Z,100327.61
2018-05-12T06:59:31.371Z,100330.02
2018-05-12T07:01:59.793Z,100330.28
2018-05-12T07:04:28.225Z,100335.52
2018-05-12T07:06:56.627Z,100333.15
2018-05-12T07:09:25.508Z,100328.23
2018-05-12T07:11:53.882Z,100325.56
2018-05-12T07:14:22.279Z,100327.08
2018-05-12T07:16:50.627Z,100324.14
2018-05-12T07:19:19.005Z,100329.34
2018-05-12T07:21:47.522Z,100325.43
2018-05-12T07:24:15.868Z,100328.98
2018-05-12T07:26:44.244Z,100321.67
2018-05-12T07:29:16.509Z,100317.48
2018-05-12T07:31:44.866Z,100315.91
2018-05-12T07:34:14.405Z,100314.41
2018-05-12T07:36:42.778Z,100310.89
2018-05-12T07:39:11.131Z,100309.64
2018-05-12T07:41:39.770Z,100304.86
2018-05-12T07:44:08.150Z,100290.83
2018-05-12T07:46:36.503Z,100287.41
2018-05-12T07:49:04.878Z,100291.17
2018-05-12T07:51:35.104Z,100282.67
2018-05-12T07:54:03.404Z,100287.15
2018-05-12T07:56:31.752Z,100276.41
2018-05-12T07:59:00.158Z,100281.63
2018-05-12T08:01:28.526Z,100280.13
2018-05-12T08:03:56.880Z,100278.33
2018-05-12T08:06:25.228Z,100278.10
2018-05-12T08:08:53.683Z,100276.35
2018-05-12T08:11:22.017Z,100273.43
2018-05-12T08:13:50.343Z,100271.42
2018-05-12T08:16:18.705Z,100269.78
2018-05-12T08:18:47.098Z,100269.60
2018-05-12T08:21:16.881Z,100264.52
2018-05-12T08:23:45.225Z,100260.22
2018-05-12T08:26:13.584Z,100259.83
2018-05-12T08:28:41.932Z,100257.88
2018-05-12T08:31:10.364Z,100255.00
2018-05-12T08:33:38.808Z,100252.70
2018-05-12T08:36:08.231Z,100245.88
2018-05-12T08:38:36.573Z,100245.99
2018-05-12T08:41:04.911Z,100243.32
2018-05-12T08:43:33.252Z,100248.36
2018-05-12T08:46:01.620Z,100242.10
2018-05-12T08:48:29.966Z,100240.68
2018-05-12T08:50:58.317Z,100244.77
2018-05-12T08:53:26.654Z,100237.88
2018-05-12T08:55:55.009Z,100238.27
2018-05-12T08:58:23.405Z,100232.44
2018-05-12T09:00:51.885Z,100232.48
2018-05-12T09:03:20.229Z,100235.05
2018-05-12T09:05:48.663Z,100235.70
2018-05-12T09:08:17.012Z,100222.94
2018-05-12T09:10:45.438Z,100222.92
2018-05-12T09:13:13.779Z,100215.81
2018-05-12T09:15:42.283Z,100214.75
2018-05-12T09:18:10.643Z,100214.77
2018-05-12T09:20:39.000Z,100217.50
2018-05-12T09:23:07.356Z,100214.99
2018-05-12T09:25:35.771Z,100209.93
2018-05-12T09:28:04.106Z,100202.73
2018-05-12T09:30:32.711Z,100200.20
2018-05-12T09:33:01.064Z,100202.40
2018-05-12T09:35:29.411Z,100199.71
2018-05-12T09:37:57.769Z,100205.48
2018-05-12T09:40:26.090Z,100196.75
2018-05-12T09:42:54.447Z,100193.17
2018-05-12T09:45:22.777Z,100191.50
2018-05-12T09:47:51.211Z,100199.07
2018-05-12T09:50:19.540Z,100192.86
2018-05-12T09:52:47.905Z,100186.19
2018-05-12T09:55:16.309Z,100190.73
2018-05-12T09:57:44.683Z,100180.49
2018-05-12T10:00:13.029Z,100178.38
2018-05-12T10:02:41.363Z,100176.13
2018-05-12T10:05:09.707Z,100174.14
2018-05-12T10:07:38.067Z,100169.42
2018-05-12T10:10:06.442Z,100169.19
2018-05-12T10:12:34.779Z,100159.19
2018-05-12T10:15:03.231Z,100165.09
2018-05-12T10:17:31.561Z,100163.03
2018-05-12T10:20:00.015Z,100162.44
2018-05-12T10:22:28.389Z,100161.19
2018-05-12T10:24:56.804Z,100166.05
2018-05-12T10:27:25.149Z,100160.84
2018-05-12T10:29:53.676Z,100158.91
2018-05-12T10:32:23.053Z,100150.45
2018-05-12T10:34:51.419Z,100160.08
2018-05-12T10:37:19.765Z,100153.99
2018-05-12T10:39:48.827Z,100160.72
2018-05-12T10:42:17.177Z,100144.28
2018-05-12T10:44:45.532Z,100143.36
2018-05-12T10:47:13.959Z,100147.47
2018-05-12T10:49:42.292Z,100146.51
2018-05-12T10:52:10.638Z,100149.59
2018-05-12T10:54:39.020Z,100146.00
2018-05-12T10:57:07.370Z,100143.95
2018-05-12T10:59:35.711Z,100144.05
2018-05-12T11:02:04.132Z,100133.34
2018-05-12T11:04:32.457Z,100125.41
2018-05-12T11:07:00.801Z,100117.58
2018-05-12T11:09:29.187Z,100114.09
2018-05-12T11:11:57.546Z,100109.72
2018-05-12T11:14:25.903Z,100113.84
2018-05-12T11:16:54.266Z,100106.59
2018-05-12T11:19:22.619Z,100091.05
2018-05-12T11:21:51.041Z,100090.94
2018-05-12T11:24:19.386Z,100085.75
2018-05-12T11:26:47.730Z,100087.59
2018-05-12T11:29:16.125Z,100085.30
2018-05-12T11:31:44.521Z,100083.50
2018-05-12T11:34:12.876Z,100085.11
2018-05-12T11:36:41.309Z,100071.97
2018-05-12T11:39:09.649Z,100078.63
2018-05-12T11:41:38.130Z,100076.58
2018-05-12T11:44:06.472Z,100076.44
2018-05-12T11:46:34.885Z,100072.28
2018-05-12T11:49:03.395Z,100064.58
2018-05-12T11:51:36.687Z,100064.73
2018-05-12T11:54:05.145Z,100062.79
2018-05-12T11:56:33.389Z,100058.51
2018-05-12T11:59:01.759Z,100058.11
2018-05-12T12:01:30.188Z,100055.05
2018-05-12T12:03:58.542Z,100052.62
2018-05-12T12:06:26.967Z,100066.12
2018-05-12T12:08:55.305Z,100054.37
2018-05-12T12:11:23.705Z,100049.88
2018-05-12T12:13:52.036Z,100047.19
2018-05-12T12:16:21.885Z,100041.22
2018-05-12T12:18:50.829Z,100039.80
2018-05-12T12:21:19.174Z,100036.40
2018-05-12T12:23:48.069Z,100034.60
2018-05-12T12:26:16.409Z,100032.09
2018-05-12T12:28:44.762Z,100027.69
2018-05-12T12:31:13.117Z,100029.55
2018-05-12T12:33:41.445Z,100032.16
2018-05-12T12:36:09.796Z,100030.71
2018-05-12T12:38:38.136Z,100021.16
2018-05-12T12:41:06.498Z,100033.64
2018-05-12T12:43:34.826Z,100023.19
2018-05-12T12:46:03.173Z,100026.48
2018-05-12T12:48:31.549Z,100022.39
2018-05-12T12:50:59.944Z,100022.42
2018-05-12T12:53:28.541Z,100014.39
2018-05-12T12:55:56.929Z,100011.78
2018-05-12T12:58:25.347Z,100014.90
2018-05-12T13:00:53.686Z,100016.31
2018-05-12T13:03:23.283Z,100008.58
2018-05-12T13:05:51.634Z,100007.08
2018-05-12T13:08:19.970Z,100002.22
2018-05-12T13:10:48.455Z,99993.41
2018-05-12T13:13:16.924Z,99990.48
2018-05-12T13:15:45.243Z,99991.92
2018-05-12T13:18:13.610Z,99987.64
2018-05-12T13:20:43.535Z,99982.92
2018-05-12T13:23:11.875Z,99982.16
2018-05-12T13:25:40.309Z,99978.77
2018-05-12T13:28:08.641Z,99978.55
2018-05-12T13:30:36.979Z,99984.56
2018-05-12T13:33:05.329Z,99985.31
2018-05-12T13:35:33.709Z,99976.38
2018-05-12T13:38:02.060Z,99975.98
2018-05-12T13:40:30.410Z,99975.98
2018-05-12T13:42:58.765Z,99968.63
2018-05-12T13:45:27.221Z,99966.97
2018-05-12T13:47:55.640Z,99966.03
2018-05-12T13:50:24.013Z,99967.04
2018-05-12T13:52:52.449Z,99960.81
2018-05-12T13:55:20.795Z,99962.81
2018-05-12T13:57:49.304Z,99958.80
2018-05-12T14:00:17.607Z,99955.42
2018-05-12T14:02:45.931Z,99959.36
2018-05-12T14:05:14.260Z,99946.13
2018-05-12T14:07:42.593Z,99953.48
2018-05-12T14:10:10.913Z,99958.72
2018-05-12T14:12:39.368Z,99958.75
2018-05-12T14:15:07.693Z,99948.88
2018-05-12T14:17:36.024Z,99952.77
2018-05-12T14:20:05.027Z,99953.23
2018-05-12T14:22:33.391Z,99951.22
2018-05-12T14:25:01.735Z,99963.88
2018-05-12T14:27:30.122Z,99959.87
2018-05-12T14:29:58.620Z,99952.91
2018-05-12T14:32:26.944Z,99959.16
2018-05-12T14:34:55.293Z,99959.23
2018-05-12T14:37:23.621Z,99954.48
2018-05-12T14:39:51.988Z,99949.89
2018-05-12T14:42:20.299Z,99945.22
2018-05-12T14:44:48.662Z,99952.89
2018-05-12T14:47:17.051Z,99949.70
2018-05-12T14:49:46.171Z,99946.00
2018-05-12T14:52:14.527Z,99943.98
2018-05-12T14:54:42.934Z,99946.84
2018-05-12T14:57:11.358Z,99940.09
2018-05-12T14:59:39.830Z,99940.84
2018-05-12T15:02:08.173Z,99929.64
2018-05-12T15:04:36.778Z,99926.16
2018-05-12T15:07:05.105Z,99925.95
2018-05-12T15:09:33.441Z,99920.52
2018-05-12T15:12:01.897Z,99913.80
2018-05-12T15:14:30.270Z,99925.80
2018-05-12T15:16:58.630Z,99922.84
2018-05-12T15:19:27.023Z,99915.92
2018-05-12T15:21:56.373Z,99915.86
2018-05-12T15:24:25.283Z,99910.11
2018-05-12T15:26:53.606Z,99914.62
2018-05-12T15:29:21.974Z,99909.00
2018-05-12T15:31:50.451Z,99909.84
2018-05-12T15:34:18.773Z,99906.06
2018-05-12T15:36:47.174Z,99903.61
2018-05-12T15:39:15.556Z,99901.59
2018-05-12T15:41:43.929Z,99908.80
2018-05-12T15:44:12.366Z,99902.27
2018-05-12T15:46:40.864Z,99906.80
2018-05-12T15:49:09.233Z,99901.55
2018-05-12T15:51:37.619Z,99892.93
2018-05-12T15:54:05.973Z,99902.72
2018-05-12T15:56:34.401Z,99892.47
2018-05-12T15:59:02.743Z,99891.23
2018-05-12T16:01:31.129Z,99892.77
2018-05-12T16:03:59.451Z,99886.85
2018-05-12T16:06:27.806Z,99888.51
2018-05-12T16:08:56.146Z,99890.48
2018-05-12T16:11:24.552Z,99893.96
2018-05-12T16:13:52.959Z,99892.25
2018-05-12T16:16:21.281Z,99886.87
2018-05-12T16:18:49.625Z,99895.20
2018-05-12T16:21:18.008Z,99890.20
2018-05-12T16:23:46.327Z,99892.53
2018-05-12T16:26:14.692Z,99892.89
2018-05-12T16:28:43.098Z,99893.32
2018-05-12T16:31:11.476Z,99891.95
2018-05-12T16:33:41.116Z,99894.55
2018-05-12T16:36:09.453Z,99898.98
2018-05-12T16:38:37.789Z,99892.47
2018-05-12T16:41:06.113Z,99889.68
2018-05-12T16:43:34.542Z,99889.02
2018-05-12T16:46:03.099Z,99884.16
2018-05-12T16:48:31.849Z,99887.86
2018-05-12T16:51:00.678Z,99889.45
2018-05-12T16:53:29.305Z,99894.56
2018-05-12T16:55:57.711Z,99896.88
2018-05-12T16:58:28.183Z,99895.09
2018-05-12T17:00:57.886Z,99894.31
2018-05-12T17:03:28.965Z,99897.58
2018-05-12T17:05:58.233Z,99894.59
2018-05-12T17:08:30.795Z,99892.20
2018-05-12T17:10:59.253Z,99890.36
2018-05-12T17:13:29.384Z,99893.18
2018-05-12T17:15:57.921Z,99892.59
2018-05-12T17:18:26.502Z,99885.14
2018-05-12T17:20:55.285Z,99886.81
2018-05-12T17:23:24.123Z,99888.06
2018-05-12T17:25:52.667Z,99891.30
2018-05-12T17:28:21.059Z,99894.95
2018-05-12T17:30:49.473Z,99897.70
2018-05-12T17:33:17.879Z,99893.59
2018-05-12T17:35:46.345Z,99893.67
2018-05-12T17:38:14.780Z,99889.22
2018-05-12T17:40:43.308Z,99883.44
2018-05-12T17:43:12.713Z,99880.80
2018-05-12T17:45:51.278Z,99879.78
2018-05-12T17:48:20.072Z,99883.02
2018-05-12T17:50:49.617Z,99879.11
2018-05-12T17:53:18.185Z,99881.13
2018-05-12T17:55:47.025Z,99887.73
2018-05-12T17:58:20.260Z,99883.62
2018-05-12T18:00:52.716Z,99891.12
2018-05-12T18:03:22.539Z,99890.65
2018-05-12T18:05:58.077Z,99888.50
2018-05-12T18:08:26.717Z,99886.95
2018-05-12T18:10:56.054Z,99891.59
2018-05-12T18:13:27.711Z,99896.66
2018-05-12T18:15:56.564Z,99899.89
2018-05-12T18:18:26.346Z,99903.27
2018-05-12T18:20:54.867Z,99905.58
2018-05-12T18:23:23.948Z,99908.95
2018-05-12T18:25:53.428Z,99913.34
2018-05-12T18:28:21.773Z,99923.02
2018-05-12T18:30:50.892Z,99925.69
2018-05-12T18:33:19.360Z,99920.49
2018-05-12T18:35:49.557Z,99919.52
2018-05-12T18:38:17.915Z,99920.70
2018-05-12T18:40:46.246Z,99928.45
2018-05-12T18:43:14.622Z,99924.19
2018-05-12T18:45:42.959Z,99928.88
2018-05-12T18:48:11.296Z,99934.89
2018-05-12T18:50:39.634Z,99928.30
2018-05-12T18:53:08.054Z,99930.31
2018-05-12T18:55:39.034Z,99926.48
2018-05-12T18:58:15.667Z,99930.20
2018-05-12T19:00:56.150Z,99933.95
2018-05-12T19:03:28.723Z,99932.41
2018-05-12T19:05:59.357Z,99929.77
2018-05-12T19:08:28.404Z,99929.48
2018-05-12T19:10:56.772Z,99928.17
2018-05-12T19:13:25.128Z,99933.83
2018-05-12T19:15:53.504Z,99940.06
2018-05-12T19:18:21.826Z,99942.69
2018-05-12T19:20:50.239Z,99944.77
2018-05-12T19:23:18.639Z,99934.40
2018-05-12T19:25:47.457Z,99940.61
2018-05-12T19:28:16.126Z,99933.64
2018-05-12T19:30:44.560Z,99937.55
2018-05-12T19:33:12.887Z,99932.86
2018-05-12T19:35:41.214Z,99925.45
2018-05-12T19:38:09.651Z,99926.16
2018-05-12T19:40:38.101Z,99933.17
2018-05-12T19:43:07.054Z,99925.27
2018-05-12T19:45:36.473Z,99920.89
2018-05-12T19:48:05.605Z,99921.12
2018-05-12T19:50:34.918Z,99924.45
2018-05-12T19:53:06.392Z,99925.47
2018-05-12T19:55:38.847Z,99919.43
2018-05-12T19:58:08.510Z,99916.34
2018-05-12T20:00:37.873Z,99922.00
2018-05-12T20:03:06.288Z,99923.49
2018-05-12T20:05:36.815Z,99920.80
2018-05-12T20:08:05.214Z,99921.95
2018-05-12T20:10:33.773Z,99924.17
2018-05-12T20:13:03.396Z,99919.80
2018-05-12T20:15:33.261Z,99921.02
2018-05-12T20:18:02.258Z,99926.97
2018-05-12T20:20:30.816Z,99922.25
2018-05-12T20:22:59.828Z,99927.38
2018-05-12T20:25:28.780Z,99919.65
2018-05-12T20:28:04.486Z,99925.30
2018-05-12T20:30:33.014Z,99922.05
2018-05-12T20:33:02.492Z,99917.41
2018-05-12T20:35:31.459Z,99919.39
2018-05-12T20:38:00.786Z,99923.47
2018-05-12T20:40:31.968Z,99921.58
2018-05-12T20:43:03.101Z,99919.87
2018-05-12T20:45:32.194Z,99915.28
2018-05-12T20:48:01.076Z,99911.30
2018-05-12T20:50:30.125Z,99909.04
2018-05-12T20:52:59.634Z,99911.55
2018-05-12T20:55:28.528Z,99910.77
2018-05-12T20:57:57.051Z,99910.73
2018-05-12T21:00:27.035Z,99909.19
2018-05-12T21:02:56.298Z,99906.33
2018-05-12T21:05:25.354Z,99900.65
2018-05-12T21:07:54.143Z,99906.62
2018-05-12T21:10:24.559Z,99901.39
2018-05-12T21:12:52.971Z,99911.26
2018-05-12T21:15:21.605Z,99907.94
2018-05-12T21:17:53.140Z,99909.61
2018-05-12T21:20:23.574Z,99900.33
2018-05-12T21:22:54.380Z,99893.98
2018-05-12T21:25:22.901Z,99897.59
2018-05-12T21:27:52.643Z,99888.27
2018-05-12T21:30:21.224Z,99883.86
2018-05-12T21:32:49.629Z,99889.14
2018-05-12T21:35:19.378Z,99890.67
2018-05-12T21:37:48.270Z,99888.83
2018-05-12T21:40:17.002Z,99891.11
2018-05-12T21:42:46.460Z,99895.52
2018-05-12T21:45:14.862Z,99898.23
2018-05-12T21:47:43.605Z,99903.46
2018-05-12T21:50:12.012Z,99889.59
2018-05-12T21:52:40.616Z,99897.19
2018-05-12T21:55:09.404Z,99899.90
2018-05-12T21:57:39.594Z,99900.51
2018-05-12T22:00:09.185Z,99901.86
2018-05-12T22:02:38.008Z,99897.44
2018-05-12T22:05:06.746Z,99895.66
2018-05-12T22:07:35.685Z,99901.80
2018-05-12T22:10:04.755Z,99898.19
2018-05-12T22:12:33.532Z,99898.16
2018-05-12T22:15:02.115Z,99900.33
2018-05-12T22:17:30.486Z,99901.41
2018-05-12T22:20:00.618Z,99901.12
2018-05-12T22:22:33.825Z,99905.47
2018-05-12T22:25:06.611Z,99900.75
2018-05-12T22:27:35.476Z,99899.11
2018-05-12T22:30:04.003Z,99898.64
2018-05-12T22:32:33.137Z,99900.13
2018-05-12T22:35:02.660Z,99896.02
2018-05-12T22:37:31.446Z,99898.27
2018-05-12T22:40:01.413Z,99890.99
2018-05-12T22:42:30.348Z,99901.97
2018-05-12T22:44:58.737Z,99890.17
2018-05-12T22:47:27.137Z,99894.09
2018-05-12T22:49:55.665Z,99896.31
2018-05-12T22:52:25.302Z,99889.83
2018-05-12T22:54:53.669Z,99886.94
2018-05-12T22:57:22.087Z,99886.93
2018-05-12T22:59:50.551Z,99890.95
2018-05-12T23:02:19.044Z,99885.53
2018-05-12T23:04:49.068Z,99889.61
2018-05-12T23:07:17.476Z,99888.28
2018-05-12T23:09:45.946Z,99892.91
2018-05-12T23:12:14.619Z,99884.92
2018-05-12T23:14:43.816Z,99884.04
2018-05-12T23:17:18.654Z,99885.59
2018-05-12T23:19:47.496Z,99890.52
2018-05-12T23:22:15.920Z,99888.77
2018-05-12T23:24:44.470Z,99890.23
2018-05-12T23:27:13.403Z,99886.92
2018-05-12T23:29:42.926Z,99888.13
2018-05-12T23:32:11.394Z,99885.88
2018-05-12T23:34:39.785Z,99891.21
2018-05-12T23:37:08.191Z,99892.56
2018-05-12T23:39:37.068Z,99885.08
2018-05-12T23:42:05.515Z,99893.18
2018-05-12T23:44:35.073Z,99891.91
2018-05-12T23:47:04.275Z,99888.48
2018-05-12T23:49:33.599Z,99885.41
2018-05-12T23:52:03.710Z,99897.02
2018-05-12T23:54:34.051Z,99892.56
2018-05-12T23:57:02.766Z,99896.97
2018-05-12T23:59:31.678Z,99888.23
